createdAt,value
2023-02-16T00:00:11.252Z,101212.05
2023-02-16T00:02:16.556Z,101214.13
2023-02-16T00:04:21.870Z,101211.63
2023-02-16T00:06:26.938Z,101203.3
2023-02-16T00:08:32.023Z,101196.55
2023-02-16T00:10:37.173Z,101196.72
2023-02-16T00:12:42.095Z,101193.59
2023-02-16T00:14:47.423Z,101195.34
2023-02-16T00:16:52.457Z,101193.67
2023-02-16T00:18:57.697Z,101188.77
2023-02-16T00:21:03.888Z,101187.8
2023-02-16T00:23:09.651Z,101185.02
2023-02-16T00:25:14.764Z,101181.67
2023-02-16T00:27:19.795Z,101176.56
2023-02-16T00:29:24.868Z,101175.16
2023-02-16T00:31:30.458Z,101166.23
2023-02-16T00:33:35.805Z,101164.22
2023-02-16T00:35:40.859Z,101162.31
2023-02-16T00:37:47.228Z,101161.06
2023-02-16T00:39:52.461Z,101163.63
2023-02-16T00:41:57.599Z,101155.25
2023-02-16T00:44:02.735Z,101151.02
2023-02-16T00:46:08.394Z,101149.04
2023-02-16T00:48:13.649Z,101141.31
2023-02-16T00:50:18.900Z,101141.86
2023-02-16T00:52:23.874Z,101133.83
2023-02-16T00:54:31.987Z,101128.66
2023-02-16T00:56:37.358Z,101125.72
2023-02-16T00:58:42.520Z,101121.63
2023-02-16T01:00:47.740Z,101115.83
2023-02-16T01:02:52.917Z,101112.23
2023-02-16T01:04:58.027Z,101103.13
2023-02-16T01:07:03.201Z,101104.09
2023-02-16T01:09:08.310Z,101101.66
2023-02-16T01:11:13.646Z,101098.13
2023-02-16T01:13:18.714Z,101097.88
2023-02-16T01:15:23.855Z,101097.23
2023-02-16T01:17:28.939Z,101090.26
2023-02-16T01:19:34.036Z,101089.19
2023-02-16T01:21:39.809Z,101086.8
2023-02-16T01:23:45.048Z,101084.34
2023-02-16T01:25:50.650Z,101081.53
2023-02-16T01:27:55.811Z,101084.48
2023-02-16T01:30:01.143Z,101074.67
2023-02-16T01:32:06.783Z,101078
2023-02-16T01:34:12.228Z,101079.16
2023-02-16T01:36:17.555Z,101075.67
2023-02-16T01:38:22.708Z,101075.08
2023-02-16T01:40:27.825Z,101077.41
2023-02-16T01:42:32.757Z,101070.36
2023-02-16T01:44:37.954Z,101072.75
2023-02-16T01:46:43.123Z,101071.22
2023-02-16T01:48:48.606Z,101069.17
2023-02-16T01:50:53.650Z,101069.19
2023-02-16T01:53:01.988Z,101071.11
2023-02-16T01:55:07.310Z,101075.3
2023-02-16T01:57:12.397Z,101075.8
2023-02-16T01:59:17.547Z,101073.2
2023-02-16T02:01:26.636Z,101076.58
2023-02-16T02:03:31.915Z,101066.53
2023-02-16T02:05:37.195Z,101068.55
2023-02-16T02:07:42.338Z,101066.39
2023-02-16T02:09:47.572Z,101065.03
2023-02-16T02:11:52.645Z,101058.39
2023-02-16T02:13:57.728Z,101056.91
2023-02-16T02:16:02.786Z,101056.73
2023-02-16T02:18:07.896Z,101061.41
2023-02-16T02:20:12.959Z,101064.5
2023-02-16T02:22:18.022Z,101061.64
2023-02-16T02:24:23.136Z,101062.56
2023-02-16T02:26:28.135Z,101056.82
2023-02-16T02:28:33.130Z,101053.03
2023-02-16T02:30:38.295Z,101055.02
2023-02-16T02:32:43.486Z,101053.81
2023-02-16T02:34:48.510Z,101045.5
2023-02-16T02:36:53.508Z,101047.65
2023-02-16T02:38:58.680Z,101040.56
2023-02-16T02:41:04.865Z,101031.98
2023-02-16T02:43:10.456Z,101031.59
2023-02-16T02:45:15.761Z,101030.51
2023-02-16T02:47:20.841Z,101031.42
2023-02-16T02:49:26.034Z,101030.47
2023-02-16T02:51:31.835Z,101032.53
2023-02-16T02:53:36.858Z,101034.84
2023-02-16T02:55:41.970Z,101035.67
2023-02-16T02:57:46.878Z,101032.01
2023-02-16T02:59:51.952Z,101031.62
2023-02-16T03:01:57.115Z,101032.84
2023-02-16T03:04:02.388Z,101028.09
2023-02-16T03:06:07.386Z,101027.86
2023-02-16T03:08:12.430Z,101017.97
2023-02-16T03:10:17.591Z,101017.81
2023-02-16T03:12:22.803Z,101014.24
2023-02-16T03:14:27.765Z,101008.96
2023-02-16T03:16:32.775Z,101005.3
2023-02-16T03:18:38.180Z,101006.34
2023-02-16T03:20:43.346Z,101008.14
2023-02-16T03:22:48.333Z,101000.55
2023-02-16T03:24:53.386Z,100995.76
2023-02-16T03:26:58.389Z,100995.94
2023-02-16T03:29:03.510Z,100989.6
2023-02-16T03:31:09.370Z,100987.53
2023-02-16T03:33:14.736Z,100987.05
2023-02-16T03:35:19.935Z,100988.28
2023-02-16T03:37:25.132Z,100987.7
2023-02-16T03:39:30.257Z,100982.27
2023-02-16T03:41:36.778Z,100984.81
2023-02-16T03:43:41.994Z,100988.61
2023-02-16T03:45:47.233Z,100983.48
2023-02-16T03:47:52.522Z,100984.18
2023-02-16T03:49:57.820Z,100976.34
2023-02-16T03:52:02.917Z,100975.63
2023-02-16T03:54:08.025Z,100971.81
2023-02-16T03:56:13.060Z,100966.14
2023-02-16T03:58:18.086Z,100969.95
2023-02-16T04:00:23.389Z,100965.39
2023-02-16T04:02:28.481Z,100961.92
2023-02-16T04:04:33.823Z,100958.34
2023-02-16T04:06:39.368Z,100956.78
2023-02-16T04:08:44.432Z,100952.19
2023-02-16T04:10:49.453Z,100949.98
2023-02-16T04:12:54.598Z,100944.48
2023-02-16T04:14:59.872Z,100943.73
2023-02-16T04:17:05.174Z,100941.7
2023-02-16T04:19:10.355Z,100938.89
2023-02-16T04:21:15.244Z,100935.64
2023-02-16T04:23:20.389Z,100936.39
2023-02-16T04:25:25.784Z,100932.93
2023-02-16T04:27:30.746Z,100929.7
2023-02-16T04:29:35.846Z,100929.3
2023-02-16T04:31:41.322Z,100925.96
2023-02-16T04:33:46.649Z,100922.27
2023-02-16T04:35:51.796Z,100928
2023-02-16T04:37:57.373Z,100926.79
2023-02-16T04:40:02.426Z,100924.65
2023-02-16T04:42:07.664Z,100922.77
2023-02-16T04:44:12.833Z,100928.17
2023-02-16T04:46:17.991Z,100929.81
2023-02-16T04:48:23.260Z,100937.3
2023-02-16T04:50:28.360Z,100938.22
2023-02-16T04:52:33.505Z,100937.42
2023-02-16T04:54:38.815Z,100934.23
2023-02-16T04:56:43.991Z,100930.23
2023-02-16T04:58:49.143Z,100935.23
2023-02-16T05:00:54.459Z,100933.38
2023-02-16T05:02:59.592Z,100931.08
2023-02-16T05:05:04.752Z,100934.41
2023-02-16T05:07:09.772Z,100929.31
2023-02-16T05:09:14.851Z,100932.2
2023-02-16T05:11:20.093Z,100927.66
2023-02-16T05:13:25.040Z,100926.93
2023-02-16T05:15:30.366Z,100922
2023-02-16T05:17:35.617Z,100928.04
2023-02-16T05:19:40.641Z,100928.78
2023-02-16T05:21:45.954Z,100934.08
2023-02-16T05:23:51.090Z,100931.33
2023-02-16T05:25:56.120Z,100928
2023-02-16T05:28:01.289Z,100922.93
2023-02-16T05:30:06.710Z,100920.69
2023-02-16T05:32:12.240Z,100916.93
2023-02-16T05:34:17.877Z,100913.06
2023-02-16T05:36:22.842Z,100911.48
2023-02-16T05:38:28.006Z,100913.13
2023-02-16T05:40:33.211Z,100913.83
2023-02-16T05:42:38.455Z,100917.07
2023-02-16T05:44:43.580Z,100917.27
2023-02-16T05:46:48.824Z,100912.49
2023-02-16T05:48:54.042Z,100915.86
2023-02-16T05:50:59.393Z,100917.78
2023-02-16T05:53:05.563Z,100913.02
2023-02-16T05:55:10.722Z,100911.16
2023-02-16T05:57:15.895Z,100909.63
2023-02-16T05:59:20.878Z,100904.08
2023-02-16T06:01:25.897Z,100902.95
2023-02-16T06:03:31.137Z,100902.95
2023-02-16T06:05:36.321Z,100908.88
2023-02-16T06:07:41.435Z,100912.91
2023-02-16T06:09:46.355Z,100904.94
2023-02-16T06:11:51.446Z,100907.31
2023-02-16T06:13:56.477Z,100906.13
2023-02-16T06:16:01.634Z,100906.48
2023-02-16T06:18:07.430Z,100900.72
2023-02-16T06:20:12.753Z,100903.88
2023-02-16T06:22:18.138Z,100909.11
2023-02-16T06:24:23.378Z,100912.09
2023-02-16T06:26:28.817Z,100919.27
2023-02-16T06:28:33.948Z,100918.81
2023-02-16T06:30:39.086Z,100919.32
2023-02-16T06:32:44.403Z,100917.89
2023-02-16T06:34:49.905Z,100912.37
2023-02-16T06:36:55.170Z,100911.07
2023-02-16T06:39:00.528Z,100905.44
2023-02-16T06:41:06.617Z,100913.07
2023-02-16T06:43:12.103Z,100912.95
2023-02-16T06:45:17.232Z,100898.2
2023-02-16T06:47:22.712Z,100893.58
2023-02-16T06:49:29.289Z,100894.06
2023-02-16T06:51:34.910Z,100890.92
2023-02-16T06:53:40.313Z,100892.27
2023-02-16T06:55:45.787Z,100889.88
2023-02-16T06:57:53.981Z,100893.72
2023-02-16T06:59:59.680Z,100892.14
2023-02-16T07:02:05.041Z,100892.86
2023-02-16T07:04:10.511Z,100893.44
2023-02-16T07:06:15.701Z,100901.32
2023-02-16T07:08:20.772Z,100895.1
2023-02-16T07:10:26.197Z,100896.95
2023-02-16T07:12:53.630Z,100896.63
2023-02-16T07:14:59.163Z,100888.02
2023-02-16T07:17:04.572Z,100884.31
2023-02-16T07:19:09.722Z,100889.03
2023-02-16T07:21:14.993Z,100892.66
2023-02-16T07:23:20.331Z,100890.16
2023-02-16T07:25:25.752Z,100887.95
2023-02-16T07:27:30.704Z,100887.41
2023-02-16T07:29:35.835Z,100890.06
2023-02-16T07:31:41.222Z,100890.83
2023-02-16T07:33:46.844Z,100892.58
2023-02-16T07:35:51.853Z,100892.77
2023-02-16T07:37:57.343Z,100890.91
2023-02-16T07:40:02.751Z,100887.34
2023-02-16T07:42:08.161Z,100885.34
2023-02-16T07:44:13.192Z,100886.41
2023-02-16T07:46:18.699Z,100881.78
2023-02-16T07:48:25.793Z,100887.94
2023-02-16T07:50:30.783Z,100884.72
2023-02-16T07:52:36.096Z,100883.28
2023-02-16T07:54:41.578Z,100886.48
2023-02-16T07:56:46.745Z,100881.78
2023-02-16T07:58:51.855Z,100882.89
2023-02-16T08:00:57.148Z,100879.97
2023-02-16T08:03:02.829Z,100884.52
2023-02-16T08:05:08.468Z,100884.67
2023-02-16T08:07:13.466Z,100881.23
2023-02-16T08:09:18.734Z,100879.6
2023-02-16T08:11:23.772Z,100877.09
2023-02-16T08:13:28.896Z,100874.14
2023-02-16T08:15:34.067Z,100877.87
2023-02-16T08:17:39.250Z,100871.18
2023-02-16T08:19:44.383Z,100868.81
2023-02-16T08:21:50.492Z,100863.84
2023-02-16T08:23:56.296Z,100862.96
2023-02-16T08:26:02.168Z,100865.39
2023-02-16T08:28:08.868Z,100862.53
2023-02-16T08:30:15.739Z,100865.39
2023-02-16T08:32:21.647Z,100862.97
2023-02-16T08:34:27.172Z,100861.17
2023-02-16T08:36:32.270Z,100861.88
2023-02-16T08:38:39.161Z,100856.17
2023-02-16T08:40:47.647Z,100853.91
2023-02-16T08:42:52.730Z,100856.72
2023-02-16T08:44:57.961Z,100854.3
2023-02-16T08:47:03.178Z,100853.19
2023-02-16T08:49:08.356Z,100850.83
2023-02-16T08:51:13.410Z,100846.84
2023-02-16T08:53:18.882Z,100845.38
2023-02-16T08:55:24.836Z,100850.05
2023-02-16T08:57:30.297Z,100843.1
2023-02-16T08:59:35.990Z,100847.93
2023-02-16T09:01:41.173Z,100846.67
2023-02-16T09:03:46.661Z,100843.58
2023-02-16T09:05:52.394Z,100838.33
2023-02-16T09:07:58.091Z,100843.98
2023-02-16T09:10:03.413Z,100842.06
2023-02-16T09:12:08.936Z,100840.7
2023-02-16T09:14:14.441Z,100843.02
2023-02-16T09:16:19.732Z,100843.06
2023-02-16T09:18:25.104Z,100839.61
2023-02-16T09:20:30.554Z,100840.38
2023-02-16T09:22:35.739Z,100834.41
2023-02-16T09:24:40.789Z,100829.27
2023-02-16T09:26:46.192Z,100825.42
2023-02-16T09:28:51.279Z,100823.45
2023-02-16T09:30:56.679Z,100827.47
2023-02-16T09:33:03.349Z,100823.3
2023-02-16T09:35:08.618Z,100819.53
2023-02-16T09:37:13.672Z,100814.48
2023-02-16T09:39:18.853Z,100812.31
2023-02-16T09:41:24.198Z,100814.47
2023-02-16T09:43:29.646Z,100817.42
2023-02-16T09:45:35.262Z,100814.56
2023-02-16T09:47:40.530Z,100812.09
2023-02-16T09:49:45.738Z,100810.23
2023-02-16T09:51:50.949Z,100812.77
2023-02-16T09:53:57.320Z,100814.95
2023-02-16T09:56:02.949Z,100811.86
2023-02-16T09:58:09.528Z,100811.33
2023-02-16T10:00:14.695Z,100802.94
2023-02-16T10:02:19.775Z,100803.08
2023-02-16T10:04:25.592Z,100804.02
2023-02-16T10:06:31.115Z,100798.39
2023-02-16T10:08:36.527Z,100796.42
2023-02-16T10:10:41.760Z,100797.35
2023-02-16T10:12:47.016Z,100793.2
2023-02-16T10:14:52.120Z,100783.98
2023-02-16T10:16:57.194Z,100785.09
2023-02-16T10:19:02.333Z,100787.02
2023-02-16T10:21:08.175Z,100785.34
2023-02-16T10:23:13.131Z,100784.2
2023-02-16T10:25:18.358Z,100780.52
2023-02-16T10:27:23.363Z,100786.41
2023-02-16T10:29:28.441Z,100783.89
2023-02-16T10:31:33.841Z,100782.35
2023-02-16T10:33:39.288Z,100786.44
2023-02-16T10:35:44.803Z,100787.58
2023-02-16T10:37:50.397Z,100784.03
2023-02-16T10:39:56.876Z,100778.66
2023-02-16T10:42:02.339Z,100778.45
2023-02-16T10:44:07.490Z,100776.47
2023-02-16T10:46:12.670Z,100773.93
2023-02-16T10:48:18.174Z,100770.4
2023-02-16T10:50:23.307Z,100766.34
2023-02-16T10:52:28.767Z,100762.7
2023-02-16T10:54:34.016Z,100758.84
2023-02-16T10:56:41.320Z,100754.66
2023-02-16T10:58:46.546Z,100750.56
2023-02-16T11:00:51.541Z,100750.48
2023-02-16T11:02:56.823Z,100746.55
2023-02-16T11:05:02.531Z,100744.38
2023-02-16T11:07:08.185Z,100744.2
2023-02-16T11:09:13.632Z,100732.31
2023-02-16T11:11:18.828Z,100726.08
2023-02-16T11:13:24.849Z,100726.48
2023-02-16T11:15:30.749Z,100728.16
2023-02-16T11:17:36.107Z,100727.7
2023-02-16T11:19:41.806Z,100723.22
2023-02-16T11:21:47.263Z,100719.3
2023-02-16T11:23:52.647Z,100722.38
2023-02-16T11:25:57.708Z,100713.4
2023-02-16T11:28:02.894Z,100719.75
2023-02-16T11:30:08.208Z,100718.76
2023-02-16T11:32:13.897Z,100720.34
2023-02-16T11:34:19.405Z,100720.72
2023-02-16T11:36:24.371Z,100720.01
2023-02-16T11:38:29.461Z,100720.7
2023-02-16T11:40:34.766Z,100716.11
2023-02-16T11:42:39.812Z,100711.35
2023-02-16T11:44:45.609Z,100716.13
2023-02-16T11:46:52.355Z,100716.05
2023-02-16T11:48:57.888Z,100710.11
2023-02-16T11:51:03.890Z,100712.8
2023-02-16T11:53:10.511Z,100719.73
2023-02-16T11:55:15.568Z,100718.55
2023-02-16T11:57:20.864Z,100709.98
2023-02-16T11:59:26.011Z,100708.59
2023-02-16T12:01:31.341Z,100705.47
2023-02-16T12:03:36.528Z,100704.28
2023-02-16T12:05:41.619Z,100704.47
2023-02-16T12:07:47.833Z,100710.09
2023-02-16T12:09:53.861Z,100707.06
2023-02-16T12:11:59.003Z,100700.06
2023-02-16T12:14:04.488Z,100696.86
2023-02-16T12:16:10.849Z,100699.11
2023-02-16T12:18:16.938Z,100701.23
2023-02-16T12:20:22.127Z,100702.28
2023-02-16T12:22:28.030Z,100699.45
2023-02-16T12:24:33.423Z,100701.65
2023-02-16T12:26:38.688Z,100695.27
2023-02-16T12:28:43.962Z,100697.13
2023-02-16T12:30:49.462Z,100699.45
2023-02-16T12:32:54.881Z,100693.52
2023-02-16T12:34:59.783Z,100696.15
2023-02-16T12:37:05.986Z,100697.95
2023-02-16T12:39:12.046Z,100695.42
2023-02-16T12:41:17.420Z,100689.77
2023-02-16T12:43:22.468Z,100687.81
2023-02-16T12:45:27.731Z,100685.2
2023-02-16T12:47:32.804Z,100686.8
2023-02-16T12:49:38.071Z,100686.27
2023-02-16T12:51:43.246Z,100683.21
2023-02-16T12:53:50.545Z,100689.8
2023-02-16T12:55:55.792Z,100684.13
2023-02-16T12:58:01.186Z,100685.7
2023-02-16T13:00:06.572Z,100687.8
2023-02-16T13:02:12.273Z,100688.11
2023-02-16T13:04:17.836Z,100680.88
2023-02-16T13:06:22.886Z,100679.52
2023-02-16T13:08:28.105Z,100684.09
2023-02-16T13:10:33.665Z,100680.73
2023-02-16T13:12:39.912Z,100681
2023-02-16T13:14:45.697Z,100675.92
2023-02-16T13:16:51.056Z,100679.02
2023-02-16T13:18:56.592Z,100676.65
2023-02-16T13:21:01.870Z,100674.42
2023-02-16T13:23:07.349Z,100677.09
2023-02-16T13:25:12.948Z,100674.52
2023-02-16T13:27:18.327Z,100677.55
2023-02-16T13:29:23.940Z,100674.51
2023-02-16T13:31:29.618Z,100676.13
2023-02-16T13:33:35.428Z,100671.13
2023-02-16T13:35:40.796Z,100675.16
2023-02-16T13:37:46.136Z,100681.03
2023-02-16T13:39:52.350Z,100675.75
2023-02-16T13:41:58.069Z,100681.08
2023-02-16T13:44:04.322Z,100676.08
2023-02-16T13:46:10.299Z,100678.16
2023-02-16T13:48:15.854Z,100673.94
2023-02-16T13:50:22.669Z,100670.14
2023-02-16T13:52:32.465Z,100670.45
2023-02-16T13:54:38.332Z,100666.55
2023-02-16T13:56:43.375Z,100664.14
2023-02-16T13:58:48.837Z,100659.73
2023-02-16T14:00:54.958Z,100661.23
2023-02-16T14:03:00.330Z,100657.02
2023-02-16T14:05:05.436Z,100656.58
2023-02-16T14:07:28.485Z,100652.78
2023-02-16T14:09:36.548Z,100652.61
2023-02-16T14:21:54.851Z,100657.05
2023-02-16T14:26:39.415Z,100657.52
2023-02-16T14:29:19.462Z,100656.91
2023-02-16T14:31:39.130Z,100656.8
2023-02-16T14:33:45.182Z,100655.08
2023-02-16T14:35:50.852Z,100655.94
2023-02-16T14:38:09.762Z,100660.18
2023-02-16T14:40:15.199Z,100656.69
2023-02-16T14:42:20.631Z,100655.91
2023-02-16T14:44:25.861Z,100655.8
2023-02-16T14:46:30.993Z,100654.34
2023-02-16T14:48:36.844Z,100663.53
2023-02-16T14:50:43.389Z,100653.28
2023-02-16T14:52:48.950Z,100657.12
2023-02-16T14:54:54.139Z,100655.52
2023-02-16T14:56:59.405Z,100655.3
2023-02-16T14:59:04.687Z,100656.7
2023-02-16T15:01:11.631Z,100654.34
2023-02-16T15:03:17.744Z,100657.34
2023-02-16T15:05:25.273Z,100653.97
2023-02-16T15:07:31.112Z,100651.49
2023-02-16T15:09:37.486Z,100650.63
2023-02-16T15:11:43.175Z,100647.45
2023-02-16T15:13:48.517Z,100649.68
2023-02-16T15:15:55.057Z,100652.25
2023-02-16T15:18:01.847Z,100646.6
2023-02-16T15:20:07.994Z,100647.44
2023-02-16T15:22:13.841Z,100651.27
2023-02-16T15:24:19.382Z,100655.02
2023-02-16T15:26:25.069Z,100656
2023-02-16T15:28:30.793Z,100657.09
2023-02-16T15:30:36.677Z,100659.33
2023-02-16T15:32:42.172Z,100660.17
2023-02-16T15:34:48.013Z,100658.26
2023-02-16T15:36:53.424Z,100659.41
2023-02-16T15:39:00.449Z,100666.48
2023-02-16T15:41:07.334Z,100667.27
2023-02-16T15:43:13.060Z,100668.23
2023-02-16T15:45:19.220Z,100668.52
2023-02-16T15:47:29.597Z,100667.59
2023-02-16T15:49:35.075Z,100666.15
2023-02-16T15:51:43.442Z,100666.09
2023-02-16T15:53:49.511Z,100666.59
2023-02-16T15:55:58.527Z,100664.77
2023-02-16T15:58:07.010Z,100663.5
2023-02-16T16:00:13.037Z,100663.63
2023-02-16T16:05:49.793Z,100660.09
2023-02-16T16:07:56.076Z,100661.41
2023-02-16T16:10:01.086Z,100665.58
2023-02-16T16:12:06.641Z,100668.84
2023-02-16T16:14:13.940Z,100671.56
2023-02-16T16:16:25.478Z,100671.13
2023-02-16T16:18:33.029Z,100671.88
2023-02-16T16:20:39.323Z,100669.8
2023-02-16T16:22:47.770Z,100671.44
2023-02-16T16:24:54.028Z,100669.28
2023-02-16T16:27:00.176Z,100665.14
2023-02-16T16:29:08.113Z,100668.92
2023-02-16T16:31:14.188Z,100675.55
2023-02-16T16:33:21.357Z,100669.3
2023-02-16T16:35:27.034Z,100664.45
2023-02-16T16:37:32.787Z,100665.09
2023-02-16T16:39:41.757Z,100663.06
2023-02-16T16:41:54.499Z,100663.09
2023-02-16T16:44:01.009Z,100664.92
2023-02-16T16:46:07.432Z,100659.06
2023-02-16T16:48:14.714Z,100662.61
2023-02-16T16:50:24.905Z,100662.77
2023-02-16T16:52:31.858Z,100662.13
2023-02-16T16:54:47.382Z,100660.16
2023-02-16T16:56:54.050Z,100658
2023-02-16T16:59:01.152Z,100654.02
2023-02-16T17:01:12.244Z,100653.05
2023-02-16T17:03:20.487Z,100654.11
2023-02-16T17:05:31.251Z,100651.99
2023-02-16T17:07:38.937Z,100652.25
2023-02-16T17:09:45.154Z,100651.84
2023-02-16T17:11:56.807Z,100655.53
2023-02-16T17:14:06.725Z,100653.21
2023-02-16T17:16:20.102Z,100651.59
2023-02-16T17:18:30.638Z,100651.33
2023-02-16T17:20:38.879Z,100652.38
2023-02-16T17:22:52.456Z,100653.47
2023-02-16T17:25:00.148Z,100654.05
2023-02-16T17:27:10.056Z,100651.27
2023-02-16T17:29:20.310Z,100647.45
2023-02-16T17:31:28.234Z,100645.98
2023-02-16T17:33:39.472Z,100649.2
2023-02-16T17:35:48.656Z,100650.16
2023-02-16T17:37:57.693Z,100645.91
2023-02-16T17:40:05.538Z,100651.34
2023-02-16T17:42:18.053Z,100658.02
2023-02-16T17:44:25.254Z,100653.97
2023-02-16T17:46:41.195Z,100655.33
2023-02-16T17:48:52.050Z,100652.88
2023-02-16T17:51:00.926Z,100653.36
2023-02-16T17:53:11.660Z,100652.17
2023-02-16T17:55:20.562Z,100653.34
2023-02-16T17:57:39.582Z,100653.95
2023-02-16T17:59:49.988Z,100648.25
2023-02-16T18:01:59.216Z,100652.13
2023-02-16T18:04:09.693Z,100651.05
2023-02-16T18:06:19.163Z,100650.08
2023-02-16T18:08:28.604Z,100650.72
2023-02-16T18:10:36.698Z,100649.7
2023-02-16T18:12:45.323Z,100648.17
2023-02-16T18:14:58.800Z,100646.08
2023-02-16T18:17:10.654Z,100646.36
2023-02-16T18:19:26.367Z,100646.96
2023-02-16T18:21:46.161Z,100652.78
2023-02-16T18:23:59.282Z,100653.41
2023-02-16T18:26:19.604Z,100650.02
2023-02-16T18:28:26.814Z,100647.48
2023-02-16T18:30:36.300Z,100646.5
2023-02-16T18:32:44.861Z,100642.7
2023-02-16T18:34:56.698Z,100648.7
2023-02-16T18:37:19.636Z,100650.95
2023-02-16T18:39:27.795Z,100653.3
2023-02-16T18:41:35.142Z,100658.92
2023-02-16T18:43:48.033Z,100662
2023-02-16T18:46:00.357Z,100656.98
2023-02-16T18:48:12.024Z,100656.97
2023-02-16T18:50:24.192Z,100658.54
2023-02-16T18:52:35.867Z,100655.84
2023-02-16T18:54:47.903Z,100655.67
2023-02-16T18:57:01.009Z,100654.44
2023-02-16T18:59:09.366Z,100654.8
2023-02-16T19:01:27.965Z,100656.09
2023-02-16T19:03:39.375Z,100657.64
2023-02-16T19:05:47.664Z,100656.92
2023-02-16T19:07:56.398Z,100654.5
2023-02-16T19:10:06.301Z,100659.45
2023-02-16T19:12:29.925Z,100652.08
2023-02-16T19:14:39.746Z,100652.16
2023-02-16T19:16:48.218Z,100651.87
2023-02-16T19:19:04.085Z,100647.2
2023-02-16T19:21:16.525Z,100648.72
2023-02-16T19:23:32.716Z,100650.3
2023-02-16T19:25:43.811Z,100647.1
2023-02-16T19:27:54.280Z,100649.08
2023-02-16T19:30:05.211Z,100643.3
2023-02-16T19:32:21.930Z,100648.36
2023-02-16T19:34:31.721Z,100642.28
2023-02-16T19:36:43.179Z,100641.88
2023-02-16T19:38:50.721Z,100643.22
2023-02-16T19:41:05.403Z,100641
2023-02-16T19:43:18.880Z,100644.42
2023-02-16T19:45:39.856Z,100637.25
2023-02-16T19:47:53.952Z,100633.31
2023-02-16T19:50:03.352Z,100628.21
2023-02-16T19:52:11.568Z,100634.33
2023-02-16T19:54:20.233Z,100635.03
2023-02-16T19:56:30.723Z,100636.67
2023-02-16T19:58:48.286Z,100635.38
2023-02-16T20:00:59.214Z,100627.16
2023-02-16T20:03:08.302Z,100629.31
2023-02-16T20:05:28.240Z,100626.39
2023-02-16T20:07:37.721Z,100626.31
2023-02-16T20:09:46.022Z,100629.25
2023-02-16T20:12:01.291Z,100633.79
2023-02-16T20:14:11.748Z,100634.58
2023-02-16T20:16:23.613Z,100632.22
2023-02-16T20:18:37.179Z,100628.75
2023-02-16T20:20:50.579Z,100634.27
2023-02-16T20:23:00.740Z,100634.72
2023-02-16T20:25:16.078Z,100633.39
2023-02-16T20:27:27.651Z,100636.52
2023-02-16T20:29:42.002Z,100635.58
2023-02-16T20:31:51.089Z,100641.09
2023-02-16T20:34:01.952Z,100633.72
2023-02-16T20:36:12.673Z,100632.45
2023-02-16T20:38:25.365Z,100629.52
2023-02-16T20:40:44.335Z,100635.16
2023-02-16T20:42:51.199Z,100632.55
2023-02-16T20:45:01.690Z,100634.95
2023-02-16T20:47:13.236Z,100635.48
2023-02-16T20:49:22.109Z,100635.13
2023-02-16T20:51:31.300Z,100641.42
2023-02-16T20:53:42.036Z,100637.44
2023-02-16T20:55:56.031Z,100633.06
2023-02-16T20:58:09.679Z,100636.59
2023-02-16T21:00:18.917Z,100637.24
2023-02-16T21:02:28.263Z,100635.84
2023-02-16T21:04:37.064Z,100634.39
2023-02-16T21:06:50.455Z,100634.14
2023-02-16T21:08:58.860Z,100631.97
2023-02-16T21:11:06.413Z,100632.22
2023-02-16T21:13:17.252Z,100633.3
2023-02-16T21:18:55.391Z,100628.19
2023-02-16T21:21:04.177Z,100626.98
2023-02-16T21:23:12.551Z,100627.94
2023-02-16T21:25:21.686Z,100633.66
2023-02-16T21:27:29.336Z,100628.45
2023-02-16T21:29:40.608Z,100627.2
2023-02-16T21:31:47.169Z,100627.11
2023-02-16T21:33:55.742Z,100625.23
2023-02-16T21:36:03.707Z,100630.45
2023-02-16T21:38:14.245Z,100629.17
2023-02-16T21:40:20.856Z,100628.75
2023-02-16T21:42:33.032Z,100630.64
2023-02-16T21:44:40.543Z,100630.45
2023-02-16T21:46:46.637Z,100628.38
2023-02-16T21:48:52.922Z,100626.13
2023-02-16T21:50:59.763Z,100624.7
2023-02-16T21:53:05.961Z,100621.94
2023-02-16T21:55:11.369Z,100620.94
2023-02-16T21:57:17.286Z,100619.69
2023-02-16T21:59:22.617Z,100619.45
2023-02-16T22:01:28.230Z,100613.98
2023-02-16T22:03:33.748Z,100613.95
2023-02-16T22:05:39.249Z,100617.95
2023-02-16T22:07:44.702Z,100614.05
2023-02-16T22:09:49.857Z,100614.23
2023-02-16T22:11:56.338Z,100615.55
2023-02-16T22:14:01.677Z,100615.65
2023-02-16T22:16:07.846Z,100615.02
2023-02-16T22:18:13.652Z,100618.69
2023-02-16T22:20:18.931Z,100618.05
2023-02-16T22:22:24.240Z,100614.78
2023-02-16T22:24:29.299Z,100616.89
2023-02-16T22:26:34.386Z,100617.02
2023-02-16T22:28:39.578Z,100621.62
2023-02-16T22:30:46.702Z,100621.23
2023-02-16T22:32:51.837Z,100621.55
2023-02-16T22:34:57.511Z,100622.58
2023-02-16T22:37:02.680Z,100617.4
2023-02-16T22:39:07.703Z,100622.44
2023-02-16T22:41:12.758Z,100622.67
2023-02-16T22:43:17.794Z,100618.64
2023-02-16T22:45:23.007Z,100616.7
2023-02-16T22:47:28.140Z,100617.35
2023-02-16T22:49:33.133Z,100620.16
2023-02-16T22:51:38.036Z,100619.94
2023-02-16T22:53:43.303Z,100621.43
2023-02-16T22:55:48.339Z,100619.34
2023-02-16T22:57:54.747Z,100618.05
2023-02-16T22:59:59.865Z,100617.39
2023-02-16T23:02:05.098Z,100616.66
2023-02-16T23:04:10.404Z,100614.3
2023-02-16T23:06:16.047Z,100614.56
2023-02-16T23:08:21.196Z,100609.11
2023-02-16T23:10:26.529Z,100611.16
2023-02-16T23:12:31.796Z,100605.91
2023-02-16T23:14:36.752Z,100609.73
2023-02-16T23:16:42.098Z,100609.3
2023-02-16T23:18:47.471Z,100607.39
2023-02-16T23:20:52.858Z,100608.66
2023-02-16T23:22:59.184Z,100605.92
2023-02-16T23:25:04.393Z,100602.77
2023-02-16T23:27:09.563Z,100601.14
2023-02-16T23:29:14.796Z,100601.61
2023-02-16T23:31:20.242Z,100609.47
2023-02-16T23:33:25.693Z,100604.28
2023-02-16T23:35:31.046Z,100611.66
2023-02-16T23:37:36.650Z,100609.8
2023-02-16T23:39:41.859Z,100608.52
2023-02-16T23:41:46.947Z,100608.69
2023-02-16T23:43:52.126Z,100610.02
2023-02-16T23:45:57.176Z,100611.56
2023-02-16T23:48:02.387Z,100609.86
2023-02-16T23:50:07.484Z,100609.7
2023-02-16T23:52:12.506Z,100603.95
2023-02-16T23:54:17.747Z,100606.18
2023-02-16T23:56:22.818Z,100597.59
2023-02-16T23:58:27.959Z,100597.47
